Time;durP1;ratioP1;P1;durP2;ratioP2;P2;SDS_P1;SDS_P2;PMS_P1;PMS_P2;Temp;Humidity;BMP_temperature;BMP_pressure;BME280_temperature;BME280_humidity;BME280_pressure;Samples;Min_cycle;Max_cycle;Signal;HPM_P1;HPM_P2
2023/10/24 00:01:17;;;;;;;20.88;15.38;;;13.70;99.90;;;;;;5033183;28;20132;-75
2023/10/24 00:03:43;;;;;;;21.52;15.02;;;13.80;99.90;;;;;;5037278;28;20045;-76
2023/10/24 00:06:08;;;;;;;19.20;14.95;;;13.80;99.90;;;;;;5032831;28;20048;-76
2023/10/24 00:08:34;;;;;;;23.88;16.05;;;13.90;99.90;;;;;;5036203;28;20032;-76
2023/10/24 00:11:01;;;;;;;23.70;14.80;;;13.90;99.90;;;;;;5040682;28;20103;-75
2023/10/24 00:13:26;;;;;;;24.67;17.55;;;14.00;99.90;;;;;;5043984;28;20036;-75
2023/10/24 00:15:52;;;;;;;23.98;16.02;;;13.90;99.90;;;;;;5031212;28;20029;-76
2023/10/24 00:18:18;;;;;;;22.05;14.55;;;13.90;99.90;;;;;;5037893;28;20091;-75
2023/10/24 00:20:43;;;;;;;24.35;16.08;;;13.90;99.90;;;;;;5035868;28;20049;-76
2023/10/24 00:23:10;;;;;;;22.60;15.45;;;13.80;99.90;;;;;;5045751;28;20037;-76
2023/10/24 00:25:35;;;;;;;24.80;14.98;;;13.90;99.90;;;;;;5042013;28;20466;-76
2023/10/24 00:28:01;;;;;;;25.40;16.45;;;13.90;99.90;;;;;;5036035;28;20032;-76
2023/10/24 00:30:27;;;;;;;25.23;15.90;;;13.80;99.90;;;;;;5039580;28;20033;-76
2023/10/24 00:32:53;;;;;;;24.02;16.23;;;13.90;99.90;;;;;;5034289;28;20108;-76
2023/10/24 00:35:19;;;;;;;24.27;15.93;;;13.80;99.90;;;;;;5032295;28;20116;-76
2023/10/24 00:37:44;;;;;;;22.50;15.23;;;13.90;99.90;;;;;;5034498;28;20657;-75
2023/10/24 00:40:11;;;;;;;21.73;15.63;;;13.80;99.90;;;;;;5033941;28;20029;-75
2023/10/24 00:42:36;;;;;;;21.52;15.35;;;13.80;99.90;;;;;;5039077;28;20021;-75
2023/10/24 00:45:02;;;;;;;24.15;14.68;;;13.80;99.90;;;;;;5039523;28;20028;-76
2023/10/24 00:47:28;;;;;;;21.23;15.13;;;13.80;99.90;;;;;;5040451;28;20044;-76
2023/10/24 00:49:54;;;;;;;20.52;15.00;;;13.80;99.90;;;;;;5040377;28;20025;-75
2023/10/24 00:52:20;;;;;;;24.70;15.85;;;13.80;99.90;;;;;;5037194;28;20389;-76
2023/10/24 00:54:47;;;;;;;21.63;15.25;;;13.80;99.90;;;;;;5039974;28;20533;-76
2023/10/24 00:57:13;;;;;;;23.90;15.32;;;13.80;99.90;;;;;;5041657;28;20030;-76
2023/10/24 00:59:40;;;;;;;19.83;13.93;;;13.90;99.90;;;;;;5044864;28;20029;-75
2023/10/24 01:02:07;;;;;;;20.08;14.73;;;13.80;99.90;;;;;;5033181;28;20035;-75
2023/10/24 01:04:33;;;;;;;19.65;13.38;;;13.80;99.90;;;;;;5038437;28;20532;-75
2023/10/24 01:06:59;;;;;;;21.00;13.55;;;13.80;99.90;;;;;;5040812;28;20133;-76
2023/10/24 01:09:25;;;;;;;24.45;14.05;;;13.80;99.90;;;;;;5033981;28;20115;-75
2023/10/24 01:11:54;;;;;;;22.27;13.85;;;13.80;99.90;;;;;;5035586;28;20100;-76
2023/10/24 01:14:20;;;;;;;19.42;13.60;;;13.70;99.90;;;;;;5042059;28;20025;-76
2023/10/24 01:16:46;;;;;;;23.52;15.23;;;13.70;99.90;;;;;;5037572;28;20431;-76
2023/10/24 01:19:12;;;;;;;19.95;13.48;;;13.70;99.90;;;;;;5037691;28;20045;-76
2023/10/24 01:21:46;;;;;;;21.23;13.93;;;13.70;99.90;;;;;;5033704;28;20075;-76
2023/10/24 01:24:17;;;;;;;22.55;14.60;;;13.70;99.90;;;;;;5032897;28;20022;-75
2023/10/24 01:26:43;;;;;;;61.80;20.27;;;13.70;99.90;;;;;;5052065;28;20112;-76
2023/10/24 01:29:12;;;;;;;19.70;14.77;;;13.80;99.90;;;;;;5034048;28;20562;-75
2023/10/24 01:31:38;;;;;;;22.95;16.10;;;13.70;99.90;;;;;;5036049;28;20491;-76
2023/10/24 01:34:04;;;;;;;29.75;16.27;;;13.70;99.90;;;;;;5038305;28;20112;-75
2023/10/24 01:36:30;;;;;;;22.67;16.23;;;13.70;99.90;;;;;;5032710;28;20478;-76
2023/10/24 01:38:56;;;;;;;22.33;14.23;;;13.70;99.90;;;;;;5036018;28;20033;-76
2023/10/24 01:41:22;;;;;;;18.45;13.38;;;13.70;99.90;;;;;;5032512;28;20041;-76
2023/10/24 01:43:47;;;;;;;20.98;13.98;;;13.70;99.90;;;;;;5047472;28;20038;-76
2023/10/24 01:46:13;;;;;;;20.33;13.95;;;13.70;99.90;;;;;;5032083;28;20037;-75
2023/10/24 01:48:40;;;;;;;18.88;13.77;;;13.80;99.90;;;;;;5038136;28;20501;-76
2023/10/24 01:51:06;;;;;;;17.80;13.30;;;13.80;99.90;;;;;;5035771;28;20106;-76
2023/10/24 01:53:31;;;;;;;19.33;13.00;;;13.80;99.90;;;;;;5030507;28;20478;-75
2023/10/24 01:55:57;;;;;;;19.05;12.60;;;13.80;99.90;;;;;;5036095;28;20383;-76
2023/10/24 01:58:23;;;;;;;18.33;12.73;;;13.80;99.90;;;;;;5039779;28;20151;-76
2023/10/24 02:00:48;;;;;;;21.88;13.52;;;13.80;99.90;;;;;;5033101;28;20056;-76
2023/10/24 02:03:14;;;;;;;16.45;12.00;;;13.80;99.90;;;;;;5037252;28;20077;-76
2023/10/24 02:05:39;;;;;;;24.92;13.15;;;13.70;99.90;;;;;;5030817;28;20033;-75
2023/10/24 02:08:05;;;;;;;16.83;11.05;;;13.80;99.90;;;;;;5040236;28;20032;-75
2023/10/24 02:10:31;;;;;;;16.83;11.50;;;13.80;99.90;;;;;;5033165;28;20026;-75
2023/10/24 02:12:57;;;;;;;17.42;12.05;;;13.80;99.90;;;;;;5038029;28;20083;-76
2023/10/24 02:15:22;;;;;;;18.48;12.38;;;13.80;99.90;;;;;;5039986;28;20036;-75
2023/10/24 02:17:48;;;;;;;18.50;12.48;;;13.80;99.90;;;;;;5044389;28;20036;-75
2023/10/24 02:20:14;;;;;;;18.63;12.77;;;13.70;99.90;;;;;;5030128;28;20111;-75
2023/10/24 02:22:39;;;;;;;15.70;11.52;;;13.70;99.90;;;;;;5031586;28;20496;-76
2023/10/24 02:25:07;;;;;;;19.15;12.93;;;13.70;99.90;;;;;;5038354;28;20544;-76
2023/10/24 02:27:34;;;;;;;20.05;13.88;;;13.80;99.90;;;;;;5036403;28;20094;-75
2023/10/24 02:30:04;;;;;;;19.02;13.15;;;13.80;99.90;;;;;;5049482;28;20123;-76
2023/10/24 02:32:29;;;;;;;23.08;15.00;;;13.80;99.90;;;;;;5033420;28;20029;-76
2023/10/24 02:34:55;;;;;;;20.40;15.07;;;13.80;99.90;;;;;;5039053;28;20375;-76
2023/10/24 02:37:20;;;;;;;21.35;14.50;;;13.80;99.90;;;;;;5039471;28;20034;-76
2023/10/24 02:39:46;;;;;;;22.50;15.18;;;13.90;99.90;;;;;;5040821;28;20078;-75
2023/10/24 02:42:12;;;;;;;27.58;15.68;;;13.90;99.90;;;;;;5033046;28;20056;-75
2023/10/24 02:44:37;;;;;;;21.77;15.00;;;13.90;99.90;;;;;;5033979;28;20057;-76
2023/10/24 02:47:03;;;;;;;27.00;15.68;;;13.90;99.90;;;;;;5040291;28;20033;-76
2023/10/24 02:49:31;;;;;;;20.00;14.40;;;13.80;99.90;;;;;;5035768;28;20438;-76
2023/10/24 02:51:57;;;;;;;19.45;14.43;;;13.80;99.90;;;;;;5029867;28;20108;-76
2023/10/24 02:54:23;;;;;;;20.05;14.77;;;13.80;99.90;;;;;;5040610;28;20117;-75
2023/10/24 02:56:50;;;;;;;19.67;14.65;;;13.70;99.90;;;;;;5030840;28;20029;-76
2023/10/24 02:59:16;;;;;;;22.50;15.70;;;13.70;99.90;;;;;;5035660;28;20045;-76
2023/10/24 03:01:42;;;;;;;25.95;15.73;;;13.70;99.90;;;;;;5036401;28;20082;-75
2023/10/24 03:04:07;;;;;;;22.77;15.25;;;13.70;99.90;;;;;;5029743;28;20449;-75
2023/10/24 03:06:33;;;;;;;22.13;15.60;;;13.70;99.90;;;;;;5029128;28;20033;-75
2023/10/24 03:08:59;;;;;;;35.60;17.08;;;13.70;99.90;;;;;;5029509;28;20037;-75
2023/10/24 03:11:25;;;;;;;26.02;17.35;;;13.70;99.90;;;;;;5030724;28;20030;-76
2023/10/24 03:13:55;;;;;;;24.38;16.15;;;13.70;99.90;;;;;;5029963;28;20876;-76
2023/10/24 03:16:21;;;;;;;22.10;16.38;;;13.70;99.90;;;;;;5031646;28;20954;-75
2023/10/24 03:18:47;;;;;;;23.90;16.95;;;13.70;99.90;;;;;;5032887;28;20037;-76
2023/10/24 03:21:13;;;;;;;24.55;17.90;;;13.70;99.90;;;;;;5025486;28;20033;-76
2023/10/24 03:23:44;;;;;;;25.80;17.38;;;13.70;99.90;;;;;;5033408;28;20383;-75
2023/10/24 03:26:10;;;;;;;25.80;18.52;;;13.60;99.90;;;;;;5027985;28;20418;-76
2023/10/24 03:28:36;;;;;;;28.45;16.67;;;13.60;99.90;;;;;;5036119;28;20091;-75
2023/10/24 03:31:06;;;;;;;23.83;16.85;;;13.60;99.90;;;;;;5047609;28;20024;-76
2023/10/24 03:33:33;;;;;;;26.73;17.63;;;13.70;99.90;;;;;;5032240;28;20112;-75
2023/10/24 03:35:59;;;;;;;41.35;19.70;;;13.70;99.90;;;;;;5034368;28;20044;-75
2023/10/24 03:38:27;;;;;;;38.83;21.20;;;13.80;99.90;;;;;;5035661;28;21039;-76
2023/10/24 03:40:56;;;;;;;27.40;19.42;;;13.80;99.90;;;;;;5035121;28;20378;-76
2023/10/24 03:43:22;;;;;;;27.67;18.70;;;13.70;99.90;;;;;;5040669;28;20105;-75
2023/10/24 03:45:47;;;;;;;25.70;18.35;;;13.80;99.90;;;;;;5034656;28;20033;-75
2023/10/24 03:48:13;;;;;;;39.65;19.83;;;13.80;99.90;;;;;;5031853;28;20029;-75
2023/10/24 03:50:39;;;;;;;24.73;17.85;;;13.80;99.90;;;;;;5035763;28;20025;-76
2023/10/24 03:53:06;;;;;;;29.65;19.00;;;13.70;99.90;;;;;;5029597;28;20025;-75
2023/10/24 03:55:32;;;;;;;27.45;19.70;;;13.70;99.90;;;;;;5030581;28;20033;-75
2023/10/24 03:57:58;;;;;;;27.98;20.17;;;13.70;99.90;;;;;;5034251;28;20413;-76
2023/10/24 04:00:24;;;;;;;30.63;18.70;;;13.70;99.90;;;;;;5030408;28;20033;-76
2023/10/24 04:02:53;;;;;;;27.20;18.50;;;13.70;99.90;;;;;;5031160;28;20056;-75
2023/10/24 04:05:19;;;;;;;29.55;21.65;;;13.70;99.90;;;;;;5033205;28;20029;-75
2023/10/24 04:07:45;;;;;;;32.47;22.67;;;13.70;99.90;;;;;;5028672;28;20485;-75
2023/10/24 04:10:13;;;;;;;26.95;19.58;;;13.70;99.90;;;;;;5030180;28;20041;-76
2023/10/24 04:12:39;;;;;;;27.70;18.30;;;13.70;99.90;;;;;;5027924;28;20406;-76
2023/10/24 04:15:05;;;;;;;25.35;17.90;;;13.70;99.90;;;;;;5030019;28;20029;-75
2023/10/24 04:17:32;;;;;;;29.35;18.42;;;13.70;99.90;;;;;;5036961;28;20556;-75
2023/10/24 04:19:58;;;;;;;25.25;16.30;;;13.60;99.90;;;;;;5035285;28;21023;-75
2023/10/24 04:22:24;;;;;;;27.38;16.50;;;13.70;99.90;;;;;;5041912;28;20029;-75
2023/10/24 04:24:49;;;;;;;30.63;18.88;;;13.60;99.90;;;;;;5035803;28;20021;-75
2023/10/24 04:27:15;;;;;;;25.27;17.05;;;13.70;99.90;;;;;;5029176;28;20171;-75
2023/10/24 04:29:42;;;;;;;25.65;17.50;;;13.70;99.90;;;;;;5028372;28;20034;-75
2023/10/24 04:32:07;;;;;;;27.95;16.67;;;13.70;99.90;;;;;;5033423;28;20029;-75
2023/10/24 04:34:33;;;;;;;24.33;17.45;;;13.80;99.90;;;;;;5035725;28;20590;-75
2023/10/24 04:37:00;;;;;;;27.77;18.90;;;13.70;99.90;;;;;;5035720;28;20037;-75
2023/10/24 04:39:27;;;;;;;28.35;18.58;;;13.70;99.90;;;;;;5035093;28;20561;-75
2023/10/24 04:41:53;;;;;;;27.75;19.10;;;13.70;99.90;;;;;;5033228;28;20041;-76
2023/10/24 04:44:19;;;;;;;26.05;19.10;;;13.70;99.90;;;;;;5028844;28;20467;-75
2023/10/24 04:46:45;;;;;;;27.38;18.23;;;13.70;99.90;;;;;;5025885;28;20121;-75
2023/10/24 04:49:11;;;;;;;26.05;18.85;;;13.60;99.90;;;;;;5032866;28;20025;-75
2023/10/24 04:51:37;;;;;;;26.95;18.70;;;13.60;99.90;;;;;;5031617;28;20688;-76
2023/10/24 04:54:02;;;;;;;25.33;18.83;;;13.60;99.90;;;;;;5038797;28;20037;-75
2023/10/24 04:56:28;;;;;;;30.88;19.38;;;13.70;99.90;;;;;;5033422;28;20034;-75
2023/10/24 04:58:55;;;;;;;30.10;19.13;;;13.80;99.90;;;;;;5037464;28;20438;-75
2023/10/24 05:01:21;;;;;;;26.90;17.67;;;13.60;99.90;;;;;;5032393;28;20029;-76
2023/10/24 05:03:46;;;;;;;26.75;17.70;;;13.60;99.90;;;;;;5032398;28;20043;-75
2023/10/24 05:06:12;;;;;;;26.52;17.10;;;13.60;99.90;;;;;;5035119;28;20399;-75
2023/10/24 05:08:38;;;;;;;25.73;18.42;;;13.60;99.90;;;;;;5030679;28;20640;-76
2023/10/24 05:11:04;;;;;;;31.33;19.27;;;13.50;99.90;;;;;;5040029;28;20033;-75
2023/10/24 05:13:30;;;;;;;28.38;20.00;;;13.50;99.90;;;;;;5041271;28;20037;-75
2023/10/24 05:15:55;;;;;;;28.05;18.05;;;13.50;99.90;;;;;;5043122;28;20056;-75
2023/10/24 05:18:21;;;;;;;21.20;15.60;;;13.50;99.90;;;;;;5028155;28;20099;-76
2023/10/24 05:20:47;;;;;;;21.40;15.25;;;13.50;99.90;;;;;;5028153;28;20430;-75
2023/10/24 05:23:13;;;;;;;17.50;12.50;;;13.40;99.90;;;;;;5023982;28;20044;-76
2023/10/24 05:25:40;;;;;;;14.48;11.80;;;13.40;99.90;;;;;;5025926;28;20025;-76
2023/10/24 05:28:06;;;;;;;14.00;11.27;;;13.50;99.90;;;;;;5024679;28;20041;-76
2023/10/24 05:30:31;;;;;;;17.73;14.38;;;13.50;99.90;;;;;;5027498;28;20034;-76
2023/10/24 05:32:58;;;;;;;54.00;41.60;;;13.50;99.90;;;;;;5033440;28;20053;-75
2023/10/24 05:35:24;;;;;;;44.45;35.75;;;13.60;99.90;;;;;;5033387;28;20030;-75
2023/10/24 05:37:50;;;;;;;42.72;30.80;;;13.60;99.90;;;;;;5029227;28;20045;-76
2023/10/24 05:40:16;;;;;;;49.45;38.22;;;13.50;99.90;;;;;;5030178;28;20572;-75
2023/10/24 05:42:41;;;;;;;31.92;23.88;;;13.60;99.90;;;;;;5035469;28;20037;-76
2023/10/24 05:45:08;;;;;;;19.33;16.02;;;13.60;99.90;;;;;;5032358;28;20120;-76
2023/10/24 05:47:33;;;;;;;22.85;16.17;;;13.60;99.90;;;;;;5031071;28;20036;-76
2023/10/24 05:49:59;;;;;;;28.85;22.48;;;13.60;99.90;;;;;;5031646;28;20029;-76
2023/10/24 05:52:25;;;;;;;27.10;18.75;;;13.60;99.90;;;;;;5033289;28;20029;-76
2023/10/24 05:54:52;;;;;;;29.23;19.98;;;13.50;99.90;;;;;;5028906;28;20030;-76
2023/10/24 05:57:17;;;;;;;22.38;17.42;;;13.40;99.90;;;;;;5030643;28;20079;-75
2023/10/24 05:59:43;;;;;;;21.30;15.48;;;13.40;99.90;;;;;;5034325;28;20037;-75
2023/10/24 06:02:09;;;;;;;21.70;16.80;;;13.40;99.90;;;;;;5031180;28;20045;-76
2023/10/24 06:04:35;;;;;;;20.83;16.33;;;13.50;99.90;;;;;;5023595;28;20521;-76
2023/10/24 06:07:02;;;;;;;19.85;15.27;;;13.50;99.90;;;;;;5034507;28;20025;-76
2023/10/24 06:09:27;;;;;;;20.98;15.07;;;13.50;99.90;;;;;;5029203;28;20128;-76
2023/10/24 06:11:53;;;;;;;21.35;16.00;;;13.50;99.90;;;;;;5030334;28;20104;-76
2023/10/24 06:14:19;;;;;;;25.15;16.70;;;13.50;99.90;;;;;;5023584;28;20029;-76
2023/10/24 06:16:45;;;;;;;20.98;16.08;;;13.60;99.90;;;;;;5032163;28;20036;-76
2023/10/24 06:19:11;;;;;;;19.85;15.35;;;13.60;99.90;;;;;;5038451;28;20037;-75
2023/10/24 06:21:36;;;;;;;30.58;18.88;;;13.60;99.90;;;;;;5029221;28;20103;-75
2023/10/24 06:24:02;;;;;;;46.10;23.48;;;13.50;99.90;;;;;;5023495;28;20100;-75
2023/10/24 06:26:28;;;;;;;286.02;47.20;;;13.40;99.90;;;;;;5033391;28;20021;-75
2023/10/24 06:28:54;;;;;;;17.73;13.05;;;13.40;99.90;;;;;;5022084;28;20440;-75
2023/10/24 06:31:20;;;;;;;17.23;11.35;;;13.40;99.90;;;;;;5041782;28;20466;-75
2023/10/24 06:33:46;;;;;;;14.38;11.00;;;13.40;99.90;;;;;;5043486;28;20044;-74
2023/10/24 06:36:11;;;;;;;14.00;10.75;;;13.40;99.90;;;;;;5030539;28;20099;-75
2023/10/24 06:38:37;;;;;;;12.95;9.45;;;13.40;99.90;;;;;;5022538;28;20040;-75
2023/10/24 06:41:06;;;;;;;15.38;11.15;;;13.40;99.90;;;;;;5029277;28;20100;-75
2023/10/24 06:43:31;;;;;;;15.23;11.38;;;13.40;99.90;;;;;;5042912;28;20049;-73
2023/10/24 06:45:57;;;;;;;17.40;13.57;;;13.40;99.90;;;;;;5024782;28;20467;-74
2023/10/24 06:48:22;;;;;;;28.92;25.05;;;13.30;99.90;;;;;;5027918;28;20030;-74
2023/10/24 06:50:48;;;;;;;20.55;15.85;;;13.40;99.90;;;;;;5020563;28;20356;-74
2023/10/24 06:53:14;;;;;;;44.75;38.90;;;13.50;99.90;;;;;;5032140;28;20026;-75
2023/10/24 06:55:39;;;;;;;22.88;18.05;;;13.50;99.90;;;;;;5021044;28;20044;-74
2023/10/24 06:58:05;;;;;;;19.88;14.80;;;13.50;99.90;;;;;;5034863;28;20051;-74
2023/10/24 07:00:32;;;;;;;24.17;15.15;;;13.50;99.90;;;;;;5023993;28;20103;-74
2023/10/24 07:02:58;;;;;;;20.08;13.75;;;13.50;99.90;;;;;;5021415;28;20072;-74
2023/10/24 07:05:24;;;;;;;22.92;13.15;;;13.50;99.90;;;;;;5021829;28;20034;-74
2023/10/24 07:07:50;;;;;;;17.88;12.02;;;13.50;99.90;;;;;;5022005;28;20033;-74
2023/10/24 07:10:16;;;;;;;14.65;11.07;;;13.50;99.90;;;;;;5040732;28;20032;-74
2023/10/24 07:12:42;;;;;;;14.68;10.88;;;13.40;99.90;;;;;;5032840;28;20669;-74
2023/10/24 07:15:08;;;;;;;15.45;9.05;;;13.40;99.90;;;;;;5026100;28;20033;-74
2023/10/24 07:17:35;;;;;;;15.55;10.52;;;13.50;99.90;;;;;;5027366;28;20092;-74
2023/10/24 07:20:01;;;;;;;12.18;9.25;;;13.50;99.90;;;;;;5034053;28;20028;-74
2023/10/24 07:22:28;;;;;;;9.57;7.60;;;13.50;99.90;;;;;;5028090;28;20533;-74
2023/10/24 07:24:54;;;;;;;14.48;8.27;;;13.50;99.90;;;;;;5037611;28;20507;-74
2023/10/24 07:27:20;;;;;;;12.77;8.82;;;13.50;99.90;;;;;;5027044;28;20035;-74
2023/10/24 07:29:46;;;;;;;10.85;7.80;;;13.40;99.90;;;;;;5033692;28;20068;-74
2023/10/24 07:32:12;;;;;;;11.35;6.93;;;13.40;99.90;;;;;;5032492;28;20060;-75
2023/10/24 07:34:41;;;;;;;9.43;6.55;;;13.40;99.90;;;;;;5030035;28;20519;-74
2023/10/24 07:37:07;;;;;;;11.57;8.43;;;13.40;99.90;;;;;;5039579;28;20492;-74
2023/10/24 07:39:33;;;;;;;15.80;7.97;;;13.40;99.90;;;;;;5030359;28;20116;-74
2023/10/24 07:41:59;;;;;;;11.00;8.15;;;13.40;99.90;;;;;;5034100;28;20029;-74
2023/10/24 07:44:24;;;;;;;8.93;7.22;;;13.40;99.90;;;;;;5033864;28;20039;-74
2023/10/24 07:46:50;;;;;;;7.60;5.55;;;13.40;99.90;;;;;;5029950;28;20026;-74
2023/10/24 07:49:16;;;;;;;8.68;6.47;;;13.40;99.90;;;;;;5034484;28;20573;-74
2023/10/24 07:51:41;;;;;;;7.05;5.53;;;13.40;99.90;;;;;;5037380;28;20072;-74
2023/10/24 07:54:07;;;;;;;7.90;5.57;;;13.50;99.90;;;;;;5034957;28;20112;-74
2023/10/24 07:56:33;;;;;;;6.38;4.88;;;13.50;99.90;;;;;;5034602;28;20440;-74
2023/10/24 07:58:59;;;;;;;5.72;3.30;;;13.60;99.90;;;;;;5034590;28;20049;-74
2023/10/24 08:01:25;;;;;;;8.07;3.10;;;13.50;99.90;;;;;;5036432;28;20098;-74
2023/10/24 08:03:51;;;;;;;8.55;4.50;;;13.50;99.90;;;;;;5034982;28;20076;-74
2023/10/24 08:06:16;;;;;;;97.82;58.40;;;13.40;99.90;;;;;;5030815;28;20061;-74
2023/10/24 08:08:45;;;;;;;30.90;17.33;;;13.40;99.90;;;;;;5041325;28;20037;-74
2023/10/24 08:11:11;;;;;;;13.15;8.00;;;13.40;99.90;;;;;;5032199;28;20032;-75
2023/10/24 08:13:37;;;;;;;22.88;14.82;;;13.40;99.90;;;;;;5029872;28;20029;-75
2023/10/24 08:16:02;;;;;;;10.70;7.03;;;13.40;99.90;;;;;;5029035;28;20032;-75
2023/10/24 08:18:28;;;;;;;9.10;6.78;;;13.40;99.90;;;;;;5041197;28;20041;-75
2023/10/24 08:20:54;;;;;;;8.90;8.00;;;13.40;99.90;;;;;;5032949;28;20033;-75
2023/10/24 08:23:20;;;;;;;6.88;3.33;;;13.50;99.90;;;;;;5032329;28;20083;-75
2023/10/24 08:25:45;;;;;;;8.65;3.78;;;13.40;99.90;;;;;;5036090;28;20029;-75
2023/10/24 08:28:11;;;;;;;6.30;3.53;;;13.30;99.90;;;;;;5033154;28;20029;-75
2023/10/24 08:30:38;;;;;;;5.82;3.83;;;13.30;99.90;;;;;;5037190;28;20025;-76
2023/10/24 08:33:04;;;;;;;6.22;3.45;;;13.20;99.90;;;;;;5031874;28;20029;-75
2023/10/24 08:35:30;;;;;;;4.30;2.90;;;13.30;99.90;;;;;;5039106;28;20075;-75
2023/10/24 08:37:55;;;;;;;3.25;2.28;;;13.40;99.90;;;;;;5028630;28;20034;-75
2023/10/24 08:40:21;;;;;;;4.65;2.38;;;13.50;99.90;;;;;;5026279;28;20383;-75
2023/10/24 08:42:46;;;;;;;3.15;1.70;;;13.50;99.90;;;;;;5031925;28;20025;-75
2023/10/24 08:45:16;;;;;;;3.70;2.20;;;13.60;99.90;;;;;;5032479;28;20043;-75
2023/10/24 08:47:43;;;;;;;7.40;4.47;;;13.50;99.90;;;;;;5029174;28;20057;-75
2023/10/24 08:50:09;;;;;;;5.65;3.17;;;13.30;99.90;;;;;;5027311;28;20033;-75
2023/10/24 08:52:35;;;;;;;5.20;2.92;;;13.20;99.90;;;;;;5026260;28;20116;-75
2023/10/24 08:55:06;;;;;;;5.25;3.10;;;13.20;99.90;;;;;;5029139;28;20108;-75
2023/10/24 08:57:42;;;;;;;3.67;2.42;;;13.20;99.90;;;;;;5030061;28;20025;-75
2023/10/24 09:00:13;;;;;;;4.57;2.72;;;13.20;99.90;;;;;;5030926;28;20044;-75
2023/10/24 09:02:41;;;;;;;6.97;4.32;;;13.20;99.90;;;;;;5037011;28;20396;-75
2023/10/24 09:05:11;;;;;;;8.38;5.07;;;13.20;99.90;;;;;;5029476;28;20116;-75
2023/10/24 09:07:37;;;;;;;7.20;4.10;;;13.20;99.90;;;;;;5029478;28;20026;-75
2023/10/24 09:10:03;;;;;;;7.35;3.78;;;13.20;99.90;;;;;;5036280;28;20043;-75
2023/10/24 09:12:32;;;;;;;5.15;3.70;;;13.30;99.90;;;;;;5036083;28;20040;-75
2023/10/24 09:14:59;;;;;;;4.72;3.05;;;13.30;99.90;;;;;;5031449;28;20079;-76
2023/10/24 09:17:25;;;;;;;9.02;4.03;;;13.30;99.90;;;;;;5032523;28;20032;-75
2023/10/24 09:19:55;;;;;;;5.53;3.90;;;13.40;99.90;;;;;;5034215;28;20619;-75
2023/10/24 09:22:22;;;;;;;6.30;4.20;;;13.40;99.90;;;;;;5033634;28;20025;-75
2023/10/24 09:24:49;;;;;;;6.13;3.75;;;13.40;99.90;;;;;;5037037;28;20017;-75
2023/10/24 09:27:15;;;;;;;5.45;3.15;;;13.40;99.90;;;;;;5038392;28;20063;-75
2023/10/24 09:29:41;;;;;;;5.45;3.08;;;13.40;99.90;;;;;;5030366;28;20025;-75
2023/10/24 09:32:12;;;;;;;7.68;3.40;;;13.40;99.90;;;;;;5032463;28;20049;-75
2023/10/24 09:34:41;;;;;;;6.40;3.70;;;13.40;99.90;;;;;;5035696;28;20037;-75
2023/10/24 09:37:09;;;;;;;5.90;3.63;;;13.40;99.90;;;;;;5034818;28;20030;-75
2023/10/24 09:39:56;;;;;;;8.55;4.13;;;13.30;99.90;;;;;;5040193;28;20049;-75
2023/10/24 09:42:27;;;;;;;12.18;4.78;;;13.40;99.90;;;;;;5033320;28;20036;-75
2023/10/24 09:45:05;;;;;;;10.18;5.10;;;13.40;99.90;;;;;;5039262;28;20057;-75
2023/10/24 09:47:32;;;;;;;8.88;4.47;;;13.40;99.90;;;;;;5041723;28;20422;-75
2023/10/24 09:49:59;;;;;;;5.97;4.07;;;13.40;99.90;;;;;;5031428;28;20060;-75
2023/10/24 09:52:27;;;;;;;5.93;4.20;;;13.30;99.90;;;;;;5034739;28;20029;-75
2023/10/24 09:54:54;;;;;;;7.45;4.55;;;13.30;99.90;;;;;;5038873;28;20032;-75
2023/10/24 09:57:21;;;;;;;6.40;3.10;;;13.40;99.90;;;;;;5040799;28;20049;-75
2023/10/24 09:59:49;;;;;;;4.50;2.88;;;13.30;99.90;;;;;;5027083;28;20498;-75
2023/10/24 10:02:19;;;;;;;5.40;2.20;;;13.20;99.90;;;;;;5040074;28;20033;-75
2023/10/24 10:04:48;;;;;;;3.63;2.10;;;13.30;99.90;;;;;;5038785;28;20036;-74
2023/10/24 10:07:15;;;;;;;3.83;2.00;;;13.40;99.90;;;;;;5032756;28;20119;-74
2023/10/24 10:09:43;;;;;;;3.67;2.13;;;13.40;99.90;;;;;;5031580;28;20021;-74
2023/10/24 10:12:12;;;;;;;5.07;3.25;;;13.30;99.90;;;;;;5033746;28;20462;-74
2023/10/24 10:15:06;;;;;;;6.13;3.58;;;13.30;99.90;;;;;;5028340;28;20057;-74
2023/10/24 10:17:53;;;;;;;5.38;2.88;;;13.10;99.90;;;;;;5032646;28;20036;-74
2023/10/24 10:20:48;;;;;;;5.38;2.85;;;13.10;99.90;;;;;;5031877;28;20045;-74
2023/10/24 10:23:45;;;;;;;6.53;3.50;;;13.30;99.90;;;;;;5032792;28;20467;-74
2023/10/24 10:26:36;;;;;;;10.30;5.60;;;13.50;99.90;;;;;;5029021;28;20083;-75
2023/10/24 10:29:40;;;;;;;59.90;36.92;;;13.50;99.90;;;;;;5030135;28;20030;-74
2023/10/24 10:32:42;;;;;;;29.80;18.45;;;13.30;99.90;;;;;;5039521;28;20028;-74
2023/10/24 10:35:07;;;;;;;7.53;5.70;;;13.40;99.90;;;;;;5037741;28;20071;-74
2023/10/24 10:37:37;;;;;;;8.48;5.30;;;13.40;99.90;;;;;;5031715;28;20031;-74
2023/10/24 10:40:15;;;;;;;64.88;12.45;;;13.40;99.90;;;;;;5031966;28;20025;-74
2023/10/24 10:42:50;;;;;;;13.30;5.15;;;13.30;99.90;;;;;;5028432;28;20045;-74
2023/10/24 10:45:29;;;;;;;6.07;4.45;;;13.40;99.90;;;;;;5037775;28;20040;-75
2023/10/24 10:48:01;;;;;;;6.15;3.58;;;13.40;99.90;;;;;;5036548;28;20060;-74
2023/10/24 10:50:29;;;;;;;6.60;4.20;;;13.30;99.90;;;;;;5040798;28;20064;-74
2023/10/24 10:53:21;;;;;;;6.18;4.00;;;13.40;99.90;;;;;;5038894;28;20112;-74
2023/10/24 10:55:53;;;;;;;4.93;3.15;;;13.40;99.90;;;;;;5035363;28;20033;-74
2023/10/24 10:58:41;;;;;;;5.03;3.50;;;13.40;99.90;;;;;;5040361;28;20036;-74
2023/10/24 11:01:33;;;;;;;9.38;6.55;;;13.40;99.90;;;;;;5040134;28;20033;-75
2023/10/24 11:03:59;;;;;;;46.13;27.17;;;13.60;99.90;;;;;;5038565;28;20049;-74
2023/10/24 11:06:27;;;;;;;33.72;20.83;;;13.60;99.90;;;;;;5036385;28;20087;-75
2023/10/24 11:09:09;;;;;;;7.85;5.57;;;13.50;99.90;;;;;;5033498;28;20068;-75
2023/10/24 11:11:37;;;;;;;5.55;3.13;;;13.40;99.90;;;;;;5037555;28;20075;-75
2023/10/24 11:14:20;;;;;;;3.60;2.33;;;13.40;99.90;;;;;;5030920;28;20425;-74
2023/10/24 11:16:48;;;;;;;2.60;1.58;;;13.40;99.90;;;;;;5035809;28;20021;-75
2023/10/24 11:19:18;;;;;;;4.28;2.20;;;13.30;99.90;;;;;;5034813;28;20037;-75
2023/10/24 11:21:45;;;;;;;3.40;1.65;;;13.30;99.90;;;;;;5035048;28;20591;-75
2023/10/24 11:24:20;;;;;;;4.28;1.80;;;13.40;99.90;;;;;;5031357;28;20434;-75
2023/10/24 11:26:54;;;;;;;;;;;13.30;99.90;;;;;;5038107;28;20966;-74
2023/10/24 11:29:20;;;;;;;8.13;4.07;;;13.40;99.90;;;;;;5036071;28;19913;-75
2023/10/24 11:31:47;;;;;;;6.15;3.10;;;13.50;99.90;;;;;;5041937;28;20469;-74
2023/10/24 11:34:13;;;;;;;2.92;1.42;;;13.50;99.90;;;;;;5041152;28;20059;-75
2023/10/24 11:36:43;;;;;;;2.90;1.20;;;13.40;99.90;;;;;;5031292;28;20036;-75
2023/10/24 11:39:13;;;;;;;2.20;1.20;;;13.40;99.90;;;;;;5035072;28;20037;-75
2023/10/24 11:41:42;;;;;;;2.70;1.25;;;13.50;99.90;;;;;;5039014;28;20021;-75
2023/10/24 11:44:11;;;;;;;3.15;1.98;;;13.50;99.90;;;;;;5035282;28;20030;-75
2023/10/24 11:46:41;;;;;;;3.03;1.40;;;13.40;99.90;;;;;;5035614;28;20132;-74
2023/10/24 11:49:06;;;;;;;3.00;1.88;;;13.30;99.90;;;;;;5036002;28;20068;-74
2023/10/24 11:51:32;;;;;;;3.53;2.00;;;13.20;99.90;;;;;;5034475;28;20025;-74
2023/10/24 11:54:02;;;;;;;3.10;1.60;;;13.20;99.90;;;;;;5032130;28;20030;-75
2023/10/24 11:56:29;;;;;;;2.55;1.45;;;13.30;99.90;;;;;;5041624;28;20039;-75
2023/10/24 11:58:56;;;;;;;2.55;1.33;;;13.40;99.90;;;;;;5041107;28;20037;-75
2023/10/24 12:01:23;;;;;;;3.65;1.70;;;13.40;99.90;;;;;;5029918;28;20033;-74
2023/10/24 12:03:56;;;;;;;3.42;1.52;;;13.50;99.90;;;;;;5035593;28;20530;-74
2023/10/24 12:06:22;;;;;;;1.98;1.20;;;13.60;99.90;;;;;;5029588;28;20414;-74
2023/10/24 12:08:48;;;;;;;3.83;2.13;;;13.70;99.90;;;;;;5033585;28;20021;-74
2023/10/24 12:11:14;;;;;;;509.25;63.88;;;13.70;99.90;;;;;;5033349;28;20044;-74
2023/10/24 12:13:40;;;;;;;295.45;34.17;;;13.50;99.90;;;;;;5033916;28;20033;-74
2023/10/24 12:16:07;;;;;;;4.20;2.33;;;13.50;99.90;;;;;;5033068;28;20032;-74
2023/10/24 12:18:33;;;;;;;4.95;2.15;;;14.00;99.90;;;;;;5037986;28;20065;-74
2023/10/24 12:20:59;;;;;;;2.58;1.50;;;13.90;99.90;;;;;;5039946;28;20529;-74
2023/10/24 12:23:25;;;;;;;5.40;1.63;;;13.60;99.90;;;;;;5030484;28;20060;-72
2023/10/24 12:25:52;;;;;;;3.67;1.92;;;13.70;99.90;;;;;;5036622;28;20413;-71
2023/10/24 12:28:18;;;;;;;3.80;1.67;;;13.70;99.90;;;;;;5034550;28;20045;-71
2023/10/24 12:30:44;;;;;;;2.30;1.30;;;13.90;99.90;;;;;;5032354;28;20044;-71
2023/10/24 12:33:10;;;;;;;2.78;1.35;;;13.90;99.90;;;;;;5302090;22;20045;-74
2023/10/24 12:35:35;;;;;;;40.97;32.47;;;13.90;99.90;;;;;;5048715;28;20040;-73